VOCB/CJB METAR and TAF weather

Enter ICAO airport designator
Station Type Date Time Source
VOCB METAR 2020/07/10 23:00 UTC NOAA

VOCB 102300Z 18005KT 6000 FEW015 SCT080 22/21 Q1008 NOSIG


Station Type Date Time Source
VOCB Decoded METAR 2020/07/10 23:00 UTC NOAA

Coimbatore / Peelamedu, India (VOCB) 11-02N 077-03E 399M
Jul 10, 2020 - 07:00 PM EDT / 2020.07.10 2300 UTC
Wind: from the S (180 degrees) at 6 MPH (5 KT):0
Visibility: 3 mile(s):0
Sky conditions: partly cloudy
Temperature: 71 F (22 C)
Dew Point: 69 F (21 C)
Relative Humidity: 94%
Pressure (altimeter): 29.77 in. Hg (1008 hPa)
ob: VOCB 102300Z 18005KT 6000 FEW015 SCT080 22/21 Q1008 NOSIG
cycle: 23

Station Type Date Time Source
VOCB TAF 2020/07/10 18:00 UTC NOAA

TAF VOCB 101700Z 1018/1124 20010KT 5000 -DZ/BR SCT015 SCT080
TEMPO 1018/1021 SCT015 FEW020TCU/CB BKN080
TEMPO 1100/1103 3000 -DZ/BR
BECMG 1105/1106 6000
TEMPO 1109/1115 SCT015 FEW020TCU/CB BKN080
BECMG 1121/1122 4000 -DZ/BR

Example: see airport list